Terminal Aerodrome Forecast
Issued by NWS

Home | Current Version | Previous Version | Text Only | Print | Product List | Glossary On
Versions: 1 2 3 4 5 6 7 8 9 10 11 12 13
000
FTUS42 KMLB 272338
TAFTIX
TAF
KTIX 272338Z 2800/2824 06011KT P6SM SCT035
     FM280200 VRB03KT P6SM VCSH SCT030
     FM281500 03010KT P6SM SCT035
      AMD NOT SKED 2801/2811=

USA.gov is the U.S. government's official web portal to all federal, state and local government web resources and services.